sensor_id;sensor_type;location;lat;lon;timestamp;pressure;altitude;pressure_sealevel;temperature;humidity
71778;BME280;59609;52.430;4.668;2023-08-21T00:00:04;102354.50;;;16.82;100.00
71778;BME280;59609;52.430;4.668;2023-08-21T00:02:30;102351.72;;;16.82;100.00
71778;BME280;59609;52.430;4.668;2023-08-21T00:04:55;102343.00;;;16.77;100.00
71778;BME280;59609;52.430;4.668;2023-08-21T00:07:21;102366.34;;;16.84;100.00
71778;BME280;59609;52.430;4.668;2023-08-21T00:09:46;102363.03;;;16.89;100.00
71778;BME280;59609;52.430;4.668;2023-08-21T00:12:11;102362.84;;;16.82;100.00
71778;BME280;59609;52.430;4.668;2023-08-21T00:14:37;102368.94;;;16.86;100.00
71778;BME280;59609;52.430;4.668;2023-08-21T00:17:02;102368.41;;;16.82;100.00
71778;BME280;59609;52.430;4.668;2023-08-21T00:19:29;102365.97;;;16.79;100.00
71778;BME280;59609;52.430;4.668;2023-08-21T00:21:54;102368.75;;;16.79;100.00
71778;BME280;59609;52.430;4.668;2023-08-21T00:24:19;102368.41;;;16.74;100.00
71778;BME280;59609;52.430;4.668;2023-08-21T00:26:45;102350.78;;;16.66;100.00
71778;BME280;59609;52.430;4.668;2023-08-21T00:29:10;102370.84;;;16.77;100.00
71778;BME280;59609;52.430;4.668;2023-08-21T00:31:36;102361.94;;;16.66;100.00
71778;BME280;59609;52.430;4.668;2023-08-21T00:34:01;102363.34;;;16.70;100.00
71778;BME280;59609;52.430;4.668;2023-08-21T00:36:26;102357.25;;;16.66;100.00
71778;BME280;59609;52.430;4.668;2023-08-21T00:38:52;102354.81;;;16.63;100.00
71778;BME280;59609;52.430;4.668;2023-08-21T00:41:17;102344.13;;;16.51;100.00
71778;BME280;59609;52.430;4.668;2023-08-21T00:43:43;102354.00;;;16.45;100.00
71778;BME280;59609;52.430;4.668;2023-08-21T00:46:08;102340.22;;;16.35;100.00
71778;BME280;59609;52.430;4.668;2023-08-21T00:48:34;102365.47;;;16.42;100.00
71778;BME280;59609;52.430;4.668;2023-08-21T00:50:59;102362.69;;;16.42;100.00
71778;BME280;59609;52.430;4.668;2023-08-21T00:53:25;102353.13;;;16.44;100.00
71778;BME280;59609;52.430;4.668;2023-08-21T00:55:50;102353.47;;;16.41;100.00
71778;BME280;59609;52.430;4.668;2023-08-21T00:58:17;102362.53;;;16.43;100.00
71778;BME280;59609;52.430;4.668;2023-08-21T01:00:45;102362.31;;;16.37;100.00
71778;BME280;59609;52.430;4.668;2023-08-21T01:03:12;102357.25;;;16.32;100.00
71778;BME280;59609;52.430;4.668;2023-08-21T01:05:38;102360.38;;;16.29;100.00
71778;BME280;59609;52.430;4.668;2023-08-21T01:08:10;102371.66;;;16.28;100.00
71778;BME280;59609;52.430;4.668;2023-08-21T01:13:11;102359.09;;;16.16;100.00
71778;BME280;59609;52.430;4.668;2023-08-21T01:15:41;102376.31;;;16.19;100.00
71778;BME280;59609;52.430;4.668;2023-08-21T01:18:08;102362.22;;;16.13;100.00
71778;BME280;59609;52.430;4.668;2023-08-21T01:20:34;102362.91;;;16.15;100.00
71778;BME280;59609;52.430;4.668;2023-08-21T01:23:04;102370.94;;;16.18;100.00
71778;BME280;59609;52.430;4.668;2023-08-21T01:25:30;102364.28;;;16.11;100.00
71778;BME280;59609;52.430;4.668;2023-08-21T01:27:56;102366.34;;;16.09;100.00
71778;BME280;59609;52.430;4.668;2023-08-21T01:30:22;102366.31;;;16.01;100.00
71778;BME280;59609;52.430;4.668;2023-08-21T01:33:01;102370.69;;;16.03;100.00
71778;BME280;59609;52.430;4.668;2023-08-21T01:35:28;102371.69;;;15.94;100.00
71778;BME280;59609;52.430;4.668;2023-08-21T01:37:55;102366.97;;;15.94;100.00
71778;BME280;59609;52.430;4.668;2023-08-21T01:40:22;102371.69;;;15.94;100.00
71778;BME280;59609;52.430;4.668;2023-08-21T01:42:47;102379.78;;;15.87;100.00
71778;BME280;59609;52.430;4.668;2023-08-21T01:45:12;102377.34;;;15.84;100.00
71778;BME280;59609;52.430;4.668;2023-08-21T01:47:38;102334.41;;;15.53;100.00
71778;BME280;59609;52.430;4.668;2023-08-21T01:50:04;102365.31;;;15.58;100.00
71778;BME280;59609;52.430;4.668;2023-08-21T01:52:29;102371.66;;;15.68;100.00
71778;BME280;59609;52.430;4.668;2023-08-21T01:54:54;102367.31;;;15.66;100.00
71778;BME280;59609;52.430;4.668;2023-08-21T01:57:20;102370.97;;;15.66;100.00
71778;BME280;59609;52.430;4.668;2023-08-21T01:59:45;102378.97;;;15.69;100.00
71778;BME280;59609;52.430;4.668;2023-08-21T02:02:11;102382.53;;;15.62;100.00
71778;BME280;59609;52.430;4.668;2023-08-21T02:04:36;102355.94;;;15.51;100.00
71778;BME280;59609;52.430;4.668;2023-08-21T02:07:01;102378.88;;;15.61;100.00
71778;BME280;59609;52.430;4.668;2023-08-21T02:09:27;102374.88;;;15.56;100.00
71778;BME280;59609;52.430;4.668;2023-08-21T02:11:52;102357.56;;;15.44;100.00
71778;BME280;59609;52.430;4.668;2023-08-21T02:14:17;102374.88;;;15.56;100.00
71778;BME280;59609;52.430;4.668;2023-08-21T02:16:43;102379.00;;;15.52;100.00
71778;BME280;59609;52.430;4.668;2023-08-21T02:19:08;102368.50;;;15.63;100.00
71778;BME280;59609;52.430;4.668;2023-08-21T02:21:34;102376.75;;;15.55;100.00
71778;BME280;59609;52.430;4.668;2023-08-21T02:23:59;102373.09;;;15.55;100.00
71778;BME280;59609;52.430;4.668;2023-08-21T02:26:24;102379.19;;;15.50;100.00
71778;BME280;59609;52.430;4.668;2023-08-21T02:28:50;102371.13;;;15.47;100.00
71778;BME280;59609;52.430;4.668;2023-08-21T02:31:15;102379.00;;;15.52;100.00
71778;BME280;59609;52.430;4.668;2023-08-21T02:33:41;102381.22;;;15.48;100.00
71778;BME280;59609;52.430;4.668;2023-08-21T02:36:06;102371.94;;;15.39;100.00
71778;BME280;59609;52.430;4.668;2023-08-21T02:38:32;102379.94;;;15.42;100.00
71778;BME280;59609;52.430;4.668;2023-08-21T02:40:58;102345.53;;;15.18;100.00
71778;BME280;59609;52.430;4.668;2023-08-21T02:43:23;102374.41;;;15.25;100.00
71778;BME280;59609;52.430;4.668;2023-08-21T02:45:48;102369.16;;;15.22;100.00
71778;BME280;59609;52.430;4.668;2023-08-21T02:48:14;102348.94;;;15.12;100.00
71778;BME280;59609;52.430;4.668;2023-08-21T02:50:39;102370.59;;;15.26;100.00
71778;BME280;59609;52.430;4.668;2023-08-21T02:53:06;102377.25;;;15.33;100.00
71778;BME280;59609;52.430;4.668;2023-08-21T02:55:32;102363.84;;;15.28;100.00
71778;BME280;59609;52.430;4.668;2023-08-21T02:57:57;102363.59;;;15.22;100.00
71778;BME280;59609;52.430;4.668;2023-08-21T03:00:22;102352.91;;;15.27;100.00
71778;BME280;59609;52.430;4.668;2023-08-21T03:02:48;102370.03;;;15.40;100.00
71778;BME280;59609;52.430;4.668;2023-08-21T03:05:13;102360.28;;;15.36;100.00
71778;BME280;59609;52.430;4.668;2023-08-21T03:07:39;102356.00;;;15.24;100.00
71778;BME280;59609;52.430;4.668;2023-08-21T03:10:06;102371.78;;;15.41;100.00
71778;BME280;59609;52.430;4.668;2023-08-21T03:12:32;102367.06;;;15.41;100.00
71778;BME280;59609;52.430;4.668;2023-08-21T03:14:57;102370.09;;;15.48;100.00
71778;BME280;59609;52.430;4.668;2023-08-21T03:17:23;102370.25;;;15.46;100.00
71778;BME280;59609;52.430;4.668;2023-08-21T03:19:49;102359.94;;;15.39;100.00
71778;BME280;59609;52.430;4.668;2023-08-21T03:22:14;102359.38;;;15.35;100.00
71778;BME280;59609;52.430;4.668;2023-08-21T03:24:39;102340.69;;;15.20;100.00
71778;BME280;59609;52.430;4.668;2023-08-21T03:27:05;102351.16;;;15.26;100.00
71778;BME280;59609;52.430;4.668;2023-08-21T03:29:30;102347.13;;;15.20;100.00
71778;BME280;59609;52.430;4.668;2023-08-21T03:31:56;102360.03;;;15.29;100.00
71778;BME280;59609;52.430;4.668;2023-08-21T03:34:21;102357.03;;;15.23;100.00
71778;BME280;59609;52.430;4.668;2023-08-21T03:36:47;102358.69;;;15.16;100.00
71778;BME280;59609;52.430;4.668;2023-08-21T03:39:12;102355.94;;;15.16;100.00
71778;BME280;59609;52.430;4.668;2023-08-21T03:41:38;102354.91;;;15.17;100.00
71778;BME280;59609;52.430;4.668;2023-08-21T03:44:03;102344.25;;;15.12;100.00
71778;BME280;59609;52.430;4.668;2023-08-21T03:46:29;102334.19;;;15.11;100.00
71778;BME280;59609;52.430;4.668;2023-08-21T03:48:54;102363.28;;;15.25;100.00
71778;BME280;59609;52.430;4.668;2023-08-21T03:51:19;102363.78;;;15.20;100.00
71778;BME280;59609;52.430;4.668;2023-08-21T03:53:45;102357.28;;;15.12;100.00
71778;BME280;59609;52.430;4.668;2023-08-21T03:56:10;102340.00;;;15.00;100.00
71778;BME280;59609;52.430;4.668;2023-08-21T03:58:36;102350.94;;;15.02;100.00
71778;BME280;59609;52.430;4.668;2023-08-21T04:01:01;102358.78;;;15.06;100.00
71778;BME280;59609;52.430;4.668;2023-08-21T04:03:27;102359.03;;;15.13;100.00
71778;BME280;59609;52.430;4.668;2023-08-21T04:05:55;102349.59;;;15.06;100.00
71778;BME280;59609;52.430;4.668;2023-08-21T04:08:24;102362.34;;;15.16;100.00
71778;BME280;59609;52.430;4.668;2023-08-21T04:10:49;102348.47;;;15.16;100.00
71778;BME280;59609;52.430;4.668;2023-08-21T04:13:17;102360.13;;;15.20;100.00
71778;BME280;59609;52.430;4.668;2023-08-21T04:15:46;102361.16;;;15.19;100.00
71778;BME280;59609;52.430;4.668;2023-08-21T04:18:11;102360.03;;;15.12;100.00
71778;BME280;59609;52.430;4.668;2023-08-21T04:20:37;102368.38;;;15.12;100.00
71778;BME280;59609;52.430;4.668;2023-08-21T04:23:03;102351.97;;;15.01;100.00
71778;BME280;59609;52.430;4.668;2023-08-21T04:25:28;102364.50;;;15.05;100.00
71778;BME280;59609;52.430;4.668;2023-08-21T04:27:53;102372.81;;;15.05;100.00
71778;BME280;59609;52.430;4.668;2023-08-21T04:30:19;102361.47;;;14.98;100.00
71778;BME280;59609;52.430;4.668;2023-08-21T04:32:44;102373.88;;;15.04;100.00
71778;BME280;59609;52.430;4.668;2023-08-21T04:35:10;102370.13;;;15.13;100.00
71778;BME280;59609;52.430;4.668;2023-08-21T04:37:37;102369.09;;;15.14;100.00
71778;BME280;59609;52.430;4.668;2023-08-21T04:40:03;102370.34;;;15.02;100.00
71778;BME280;59609;52.430;4.668;2023-08-21T04:42:28;102371.09;;;15.04;100.00
71778;BME280;59609;52.430;4.668;2023-08-21T04:44:54;102375.59;;;15.05;100.00
71778;BME280;59609;52.430;4.668;2023-08-21T04:47:26;102352.31;;;14.98;100.00
71778;BME280;59609;52.430;4.668;2023-08-21T04:49:53;102373.38;;;15.08;100.00
71778;BME280;59609;52.430;4.668;2023-08-21T04:52:19;102380.03;;;15.15;100.00
71778;BME280;59609;52.430;4.668;2023-08-21T04:54:46;102374.56;;;15.06;100.00
71778;BME280;59609;52.430;4.668;2023-08-21T04:57:12;102363.31;;;15.07;100.00
71778;BME280;59609;52.430;4.668;2023-08-21T04:59:38;102381.31;;;15.21;100.00
71778;BME280;59609;52.430;4.668;2023-08-21T05:02:03;102386.16;;;15.19;100.00
71778;BME280;59609;52.430;4.668;2023-08-21T05:04:29;102399.94;;;15.28;100.00
71778;BME280;59609;52.430;4.668;2023-08-21T05:06:54;102384.16;;;15.29;100.00
71778;BME280;59609;52.430;4.668;2023-08-21T05:09:20;102387.34;;;15.34;100.00
71778;BME280;59609;52.430;4.668;2023-08-21T05:11:45;102372.81;;;15.40;100.00
71778;BME280;59609;52.430;4.668;2023-08-21T05:14:11;102381.94;;;15.50;100.00
71778;BME280;59609;52.430;4.668;2023-08-21T05:16:36;102383.53;;;15.53;100.00
71778;BME280;59609;52.430;4.668;2023-08-21T05:19:01;102393.34;;;15.65;100.00
71778;BME280;59609;52.430;4.668;2023-08-21T05:21:27;102386.44;;;15.69;100.00
71778;BME280;59609;52.430;4.668;2023-08-21T05:23:52;102385.44;;;15.78;100.00
71778;BME280;59609;52.430;4.668;2023-08-21T05:26:19;102386.28;;;15.96;100.00
71778;BME280;59609;52.430;4.668;2023-08-21T05:28:45;102392.44;;;16.08;100.00
71778;BME280;59609;52.430;4.668;2023-08-21T05:31:10;102368.25;;;16.08;100.00
71778;BME280;59609;52.430;4.668;2023-08-21T05:33:35;102387.69;;;16.34;100.00
71778;BME280;59609;52.430;4.668;2023-08-21T05:36:01;102388.78;;;16.49;100.00
71778;BME280;59609;52.430;4.668;2023-08-21T05:38:26;102385.41;;;16.63;100.00
71778;BME280;59609;52.430;4.668;2023-08-21T05:40:52;102373.06;;;16.66;100.00
71778;BME280;59609;52.430;4.668;2023-08-21T05:43:17;102396.63;;;16.87;100.00
71778;BME280;59609;52.430;4.668;2023-08-21T05:45:42;102389.69;;;16.99;100.00
71778;BME280;59609;52.430;4.668;2023-08-21T05:48:08;102389.72;;;17.08;100.00
71778;BME280;59609;52.430;4.668;2023-08-21T05:50:33;102386.94;;;17.24;100.00
71778;BME280;59609;52.430;4.668;2023-08-21T05:53:03;102396.69;;;17.28;100.00
71778;BME280;59609;52.430;4.668;2023-08-21T05:55:28;102387.44;;;17.35;100.00
71778;BME280;59609;52.430;4.668;2023-08-21T05:57:53;102374.22;;;17.45;100.00
71778;BME280;59609;52.430;4.668;2023-08-21T06:00:19;102369.00;;;17.34;100.00
71778;BME280;59609;52.430;4.668;2023-08-21T06:02:44;102379.59;;;17.55;100.00
71778;BME280;59609;52.430;4.668;2023-08-21T06:05:10;102379.28;;;17.66;100.00
71778;BME280;59609;52.430;4.668;2023-08-21T06:07:35;102377.91;;;17.70;100.00
71778;BME280;59609;52.430;4.668;2023-08-21T06:10:01;102390.06;;;17.85;100.00
71778;BME280;59609;52.430;4.668;2023-08-21T06:12:26;102386.56;;;17.99;100.00
71778;BME280;59609;52.430;4.668;2023-08-21T06:14:52;102371.91;;;18.06;100.00
71778;BME280;59609;52.430;4.668;2023-08-21T06:17:17;102382.53;;;18.02;100.00
71778;BME280;59609;52.430;4.668;2023-08-21T06:19:42;102381.97;;;18.23;100.00
71778;BME280;59609;52.430;4.668;2023-08-21T06:22:08;102378.44;;;18.37;100.00
71778;BME280;59609;52.430;4.668;2023-08-21T06:24:33;102370.00;;;18.45;100.00
71778;BME280;59609;52.430;4.668;2023-08-21T06:26:59;102382.72;;;18.64;100.00
71778;BME280;59609;52.430;4.668;2023-08-21T06:29:24;102402.38;;;18.70;100.00
71778;BME280;59609;52.430;4.668;2023-08-21T06:31:49;102387.19;;;18.73;100.00
71778;BME280;59609;52.430;4.668;2023-08-21T06:34:15;102393.81;;;19.02;100.00
71778;BME280;59609;52.430;4.668;2023-08-21T06:36:40;102393.81;;;19.02;100.00
71778;BME280;59609;52.430;4.668;2023-08-21T06:39:06;102406.47;;;19.21;100.00
71778;BME280;59609;52.430;4.668;2023-08-21T06:41:31;102381.84;;;19.17;100.00
71778;BME280;59609;52.430;4.668;2023-08-21T06:43:57;102388.84;;;19.43;100.00
71778;BME280;59609;52.430;4.668;2023-08-21T06:46:23;102392.75;;;19.57;100.00
71778;BME280;59609;52.430;4.668;2023-08-21T06:48:48;102399.22;;;19.58;100.00
71778;BME280;59609;52.430;4.668;2023-08-21T06:51:15;102388.75;;;19.74;100.00
71778;BME280;59609;52.430;4.668;2023-08-21T06:53:41;102381.34;;;19.81;100.00
71778;BME280;59609;52.430;4.668;2023-08-21T06:56:07;102385.47;;;19.85;100.00
71778;BME280;59609;52.430;4.668;2023-08-21T06:58:32;102403.00;;;20.17;100.00
71778;BME280;59609;52.430;4.668;2023-08-21T07:01:00;102382.63;;;20.23;100.00
71778;BME280;59609;52.430;4.668;2023-08-21T07:03:25;102385.16;;;20.47;100.00
71778;BME280;59609;52.430;4.668;2023-08-21T07:05:55;102401.75;;;20.63;100.00
71778;BME280;59609;52.430;4.668;2023-08-21T07:08:22;102402.59;;;20.78;100.00
71778;BME280;59609;52.430;4.668;2023-08-21T07:10:47;102404.50;;;20.92;100.00
71778;BME280;59609;52.430;4.668;2023-08-21T07:13:13;102395.09;;;21.00;100.00
71778;BME280;59609;52.430;4.668;2023-08-21T07:15:38;102397.03;;;21.14;100.00
71778;BME280;59609;52.430;4.668;2023-08-21T07:18:03;102404.72;;;21.27;100.00
71778;BME280;59609;52.430;4.668;2023-08-21T07:20:29;102400.72;;;21.36;100.00
71778;BME280;59609;52.430;4.668;2023-08-21T07:22:54;102407.25;;;21.43;100.00
71778;BME280;59609;52.430;4.668;2023-08-21T07:25:20;102408.31;;;21.42;100.00
71778;BME280;59609;52.430;4.668;2023-08-21T07:27:45;102404.00;;;21.61;100.00
71778;BME280;59609;52.430;4.668;2023-08-21T07:30:11;102411.22;;;21.91;100.00
71778;BME280;59609;52.430;4.668;2023-08-21T07:32:36;102414.16;;;22.11;100.00
71778;BME280;59609;52.430;4.668;2023-08-21T07:35:02;102398.16;;;21.83;100.00
71778;BME280;59609;52.430;4.668;2023-08-21T07:37:27;102410.38;;;21.97;100.00
71778;BME280;59609;52.430;4.668;2023-08-21T07:39:53;102415.19;;;22.03;100.00
71778;BME280;59609;52.430;4.668;2023-08-21T07:42:18;102414.63;;;22.14;100.00
71778;BME280;59609;52.430;4.668;2023-08-21T07:44:44;102411.03;;;22.27;100.00
71778;BME280;59609;52.430;4.668;2023-08-21T07:47:11;102421.53;;;22.46;100.00
71778;BME280;59609;52.430;4.668;2023-08-21T07:49:36;102410.66;;;22.36;100.00
71778;BME280;59609;52.430;4.668;2023-08-21T07:52:03;102424.22;;;22.61;100.00
71778;BME280;59609;52.430;4.668;2023-08-21T07:54:28;102414.91;;;22.60;100.00
71778;BME280;59609;52.430;4.668;2023-08-21T07:56:54;102428.97;;;22.94;100.00
71778;BME280;59609;52.430;4.668;2023-08-21T07:59:19;102423.81;;;22.64;100.00
71778;BME280;59609;52.430;4.668;2023-08-21T08:01:45;102428.09;;;22.59;100.00
71778;BME280;59609;52.430;4.668;2023-08-21T08:04:10;102436.66;;;22.79;100.00
71778;BME280;59609;52.430;4.668;2023-08-21T08:06:36;102443.88;;;22.88;100.00
71778;BME280;59609;52.430;4.668;2023-08-21T08:09:01;102438.75;;;22.08;100.00
71778;BME280;59609;52.430;4.668;2023-08-21T08:11:29;102424.06;;;22.34;100.00
71778;BME280;59609;52.430;4.668;2023-08-21T08:13:55;102429.56;;;22.55;100.00
71778;BME280;59609;52.430;4.668;2023-08-21T08:16:20;102431.34;;;22.97;100.00
71778;BME280;59609;52.430;4.668;2023-08-21T08:18:46;102436.31;;;22.95;100.00
71778;BME280;59609;52.430;4.668;2023-08-21T08:21:11;102425.09;;;23.08;100.00
71778;BME280;59609;52.430;4.668;2023-08-21T08:23:36;102428.53;;;22.97;100.00
71778;BME280;59609;52.430;4.668;2023-08-21T08:26:02;102433.22;;;23.31;100.00
71778;BME280;59609;52.430;4.668;2023-08-21T08:28:27;102431.16;;;23.12;100.00
71778;BME280;59609;52.430;4.668;2023-08-21T08:30:53;102437.22;;;23.09;100.00
71778;BME280;59609;52.430;4.668;2023-08-21T08:33:19;102428.66;;;23.30;100.00
71778;BME280;59609;52.430;4.668;2023-08-21T08:35:45;102428.38;;;23.19;100.00
71778;BME280;59609;52.430;4.668;2023-08-21T08:38:11;102424.97;;;23.30;100.00
71778;BME280;59609;52.430;4.668;2023-08-21T08:40:42;102426.09;;;23.42;100.00
71778;BME280;59609;52.430;4.668;2023-08-21T08:43:08;102405.53;;;23.35;100.00
71778;BME280;59609;52.430;4.668;2023-08-21T08:45:34;102431.66;;;23.29;100.00
71778;BME280;59609;52.430;4.668;2023-08-21T08:48:00;102428.84;;;23.29;100.00
71778;BME280;59609;52.430;4.668;2023-08-21T08:50:31;102434.63;;;24.07;100.00
71778;BME280;59609;52.430;4.668;2023-08-21T08:52:57;102410.78;;;24.10;100.00
71778;BME280;59609;52.430;4.668;2023-08-21T08:55:23;102435.28;;;24.29;100.00
71778;BME280;59609;52.430;4.668;2023-08-21T08:57:49;102442.00;;;24.28;100.00
71778;BME280;59609;52.430;4.668;2023-08-21T09:00:15;102429.41;;;24.44;100.00
71778;BME280;59609;52.430;4.668;2023-08-21T09:02:41;102434.16;;;24.50;100.00
71778;BME280;59609;52.430;4.668;2023-08-21T09:05:07;102407.28;;;24.54;100.00
71778;BME280;59609;52.430;4.668;2023-08-21T09:07:33;102426.44;;;24.96;99.67
71778;BME280;59609;52.430;4.668;2023-08-21T09:10:00;102440.50;;;25.09;97.69
71778;BME280;59609;52.430;4.668;2023-08-21T09:12:25;102443.03;;;24.53;97.08
71778;BME280;59609;52.430;4.668;2023-08-21T09:14:51;102427.81;;;24.74;95.22
71778;BME280;59609;52.430;4.668;2023-08-21T09:17:16;102419.81;;;24.71;94.87
71778;BME280;59609;52.430;4.668;2023-08-21T09:19:43;102429.03;;;25.04;94.90
71778;BME280;59609;52.430;4.668;2023-08-21T09:22:14;102401.81;;;25.17;91.96
71778;BME280;59609;52.430;4.668;2023-08-21T09:24:40;102428.13;;;25.10;89.18
71778;BME280;59609;52.430;4.668;2023-08-21T09:27:14;102414.41;;;25.21;86.11
71778;BME280;59609;52.430;4.668;2023-08-21T09:29:41;102427.47;;;25.15;87.38
71778;BME280;59609;52.430;4.668;2023-08-21T09:32:06;102399.47;;;25.14;88.44
71778;BME280;59609;52.430;4.668;2023-08-21T09:34:36;102402.53;;;25.50;84.73
71778;BME280;59609;52.430;4.668;2023-08-21T09:37:05;102417.31;;;25.39;83.37
71778;BME280;59609;52.430;4.668;2023-08-21T09:39:35;102429.38;;;25.59;81.41
71778;BME280;59609;52.430;4.668;2023-08-21T09:42:07;102434.19;;;25.52;82.60
71778;BME280;59609;52.430;4.668;2023-08-21T09:47:02;102410.31;;;25.79;79.33
71778;BME280;59609;52.430;4.668;2023-08-21T09:49:29;102405.78;;;25.78;80.17
71778;BME280;59609;52.430;4.668;2023-08-21T09:51:56;102409.38;;;25.92;80.28
71778;BME280;59609;52.430;4.668;2023-08-21T09:54:22;102415.16;;;25.72;80.11
71778;BME280;59609;52.430;4.668;2023-08-21T09:56:48;102423.56;;;26.35;78.44
71778;BME280;59609;52.430;4.668;2023-08-21T09:59:14;102414.97;;;26.23;78.44
71778;BME280;59609;52.430;4.668;2023-08-21T10:01:40;102407.38;;;25.92;77.71
71778;BME280;59609;52.430;4.668;2023-08-21T10:04:06;102415.91;;;25.86;79.01
71778;BME280;59609;52.430;4.668;2023-08-21T10:06:33;102416.78;;;25.86;80.02
71778;BME280;59609;52.430;4.668;2023-08-21T10:09:00;102425.81;;;26.26;77.94
71778;BME280;59609;52.430;4.668;2023-08-21T10:11:26;102424.22;;;26.05;77.08
71778;BME280;59609;52.430;4.668;2023-08-21T10:13:51;102416.47;;;26.01;78.14
71778;BME280;59609;52.430;4.668;2023-08-21T10:16:18;102412.19;;;26.41;77.63
71778;BME280;59609;52.430;4.668;2023-08-21T10:18:45;102424.47;;;26.29;73.26
71778;BME280;59609;52.430;4.668;2023-08-21T10:21:21;102419.38;;;25.63;77.64
71778;BME280;59609;52.430;4.668;2023-08-21T10:23:51;102387.22;;;25.89;77.48
71778;BME280;59609;52.430;4.668;2023-08-21T10:26:20;102420.31;;;25.82;73.76
71778;BME280;59609;52.430;4.668;2023-08-21T10:29:00;102432.88;;;26.10;73.74
71778;BME280;59609;52.430;4.668;2023-08-21T10:34:03;102422.81;;;26.21;73.18
71778;BME280;59609;52.430;4.668;2023-08-21T10:39:03;102430.53;;;26.32;70.28
71778;BME280;59609;52.430;4.668;2023-08-21T10:41:29;102422.94;;;26.51;71.94
71778;BME280;59609;52.430;4.668;2023-08-21T10:43:55;102429.06;;;26.48;73.91
71778;BME280;59609;52.430;4.668;2023-08-21T10:46:20;102433.53;;;26.55;73.05
71778;BME280;59609;52.430;4.668;2023-08-21T10:48:46;102431.44;;;26.51;72.02
71778;BME280;59609;52.430;4.668;2023-08-21T10:51:11;102423.69;;;26.22;73.13
71778;BME280;59609;52.430;4.668;2023-08-21T10:53:38;102429.00;;;26.73;71.63
71778;BME280;59609;52.430;4.668;2023-08-21T10:56:06;102424.97;;;26.62;68.57
71778;BME280;59609;52.430;4.668;2023-08-21T10:58:38;102435.78;;;26.72;67.34
71778;BME280;59609;52.430;4.668;2023-08-21T11:01:03;102421.78;;;26.77;67.02
71778;BME280;59609;52.430;4.668;2023-08-21T11:03:29;102420.91;;;26.76;65.15
71778;BME280;59609;52.430;4.668;2023-08-21T11:06:10;102418.59;;;26.91;65.92
71778;BME280;59609;52.430;4.668;2023-08-21T11:08:39;102424.59;;;26.77;63.63
71778;BME280;59609;52.430;4.668;2023-08-21T11:11:05;102419.56;;;26.79;65.17
71778;BME280;59609;52.430;4.668;2023-08-21T11:13:31;102428.13;;;26.72;61.06
71778;BME280;59609;52.430;4.668;2023-08-21T11:16:04;102420.19;;;26.62;66.45
71778;BME280;59609;52.430;4.668;2023-08-21T11:18:35;102426.47;;;26.46;66.07
71778;BME280;59609;52.430;4.668;2023-08-21T11:21:08;102420.06;;;26.94;64.76
71778;BME280;59609;52.430;4.668;2023-08-21T11:23:35;102424.81;;;26.82;61.22
71778;BME280;59609;52.430;4.668;2023-08-21T11:26:02;102426.66;;;27.06;61.42
71778;BME280;59609;52.430;4.668;2023-08-21T11:28:29;102392.81;;;26.81;59.16
71778;BME280;59609;52.430;4.668;2023-08-21T11:30:56;102423.03;;;26.99;61.20
71778;BME280;59609;52.430;4.668;2023-08-21T11:33:22;102425.63;;;27.19;60.77
71778;BME280;59609;52.430;4.668;2023-08-21T11:35:47;102437.72;;;27.26;60.74
71778;BME280;59609;52.430;4.668;2023-08-21T11:38:20;102422.03;;;26.93;62.46
71778;BME280;59609;52.430;4.668;2023-08-21T11:43:20;102431.25;;;27.37;62.32
71778;BME280;59609;52.430;4.668;2023-08-21T11:45:46;102431.91;;;27.21;59.96
71778;BME280;59609;52.430;4.668;2023-08-21T11:48:11;102435.00;;;26.83;58.65
71778;BME280;59609;52.430;4.668;2023-08-21T11:50:37;102426.53;;;27.01;60.55
71778;BME280;59609;52.430;4.668;2023-08-21T11:53:02;102432.91;;;27.26;60.13
71778;BME280;59609;52.430;4.668;2023-08-21T11:55:29;102450.06;;;27.31;57.44
71778;BME280;59609;52.430;4.668;2023-08-21T11:57:54;102438.84;;;27.25;59.25
71778;BME280;59609;52.430;4.668;2023-08-21T12:00:27;102428.47;;;27.00;60.31
71778;BME280;59609;52.430;4.668;2023-08-21T12:02:55;102429.25;;;27.07;58.96
71778;BME280;59609;52.430;4.668;2023-08-21T12:05:23;102428.22;;;26.47;58.58
71778;BME280;59609;52.430;4.668;2023-08-21T12:07:49;102420.94;;;26.94;57.88
71778;BME280;59609;52.430;4.668;2023-08-21T12:10:22;102432.06;;;27.44;56.89
71778;BME280;59609;52.430;4.668;2023-08-21T12:12:47;102439.41;;;26.97;58.64
71778;BME280;59609;52.430;4.668;2023-08-21T12:15:13;102428.19;;;27.38;59.69
71778;BME280;59609;52.430;4.668;2023-08-21T12:17:38;102437.34;;;27.82;57.98
71778;BME280;59609;52.430;4.668;2023-08-21T12:20:04;102426.25;;;27.69;58.46
71778;BME280;59609;52.430;4.668;2023-08-21T12:22:36;102426.13;;;27.75;57.27
71778;BME280;59609;52.430;4.668;2023-08-21T12:25:02;102425.47;;;27.32;59.50
71778;BME280;59609;52.430;4.668;2023-08-21T12:27:27;102422.56;;;27.20;59.59
71778;BME280;59609;52.430;4.668;2023-08-21T12:29:53;102435.75;;;27.26;60.56
71778;BME280;59609;52.430;4.668;2023-08-21T12:32:18;102421.78;;;27.43;59.54
71778;BME280;59609;52.430;4.668;2023-08-21T12:34:44;102417.09;;;27.37;59.62
71778;BME280;59609;52.430;4.668;2023-08-21T12:37:09;102431.72;;;27.34;58.91
71778;BME280;59609;52.430;4.668;2023-08-21T12:39:34;102410.88;;;27.46;59.50
71778;BME280;59609;52.430;4.668;2023-08-21T12:42:00;102411.31;;;27.43;58.20
71778;BME280;59609;52.430;4.668;2023-08-21T12:44:25;102420.19;;;27.65;56.95
71778;BME280;59609;52.430;4.668;2023-08-21T12:46:51;102416.16;;;26.95;58.85
71778;BME280;59609;52.430;4.668;2023-08-21T12:49:16;102412.50;;;27.54;58.71